Marquette, NE (68854)

10:40 AM CDT on September 17, 2014 (GMT -0500)
Aurora Municipal | Change Station
CLOSE
Current Station
Airport
Location: Aurora,
Elevation: 1804 ft
Nearby Weather Stations

Elev 1804 ft 40.89 °N, 97.99 °W | Updated 25 minutes ago

Clear
Clear
64 °F
Feels Like 64 °F
N
0
Wind Variable Wind from North

Today
High -- | Low -- °F
--% Chance of Precip.
Yesterday
High -- | Low -- °F
Precip. -- in
7:14 AM 7:37 PM
Waning Crescent, 35% visible
Pressure 29.94 in
Visibility 10.0 miles
Clouds Clear
Dew Point 56 °F
Humidity 75%
Rainfall 0.00 in
Snow Depth Not available.
UV 4 out of 12
Pollen 5.60 out of 12
Air Quality Not available.
Flu Activity Not available.
METAR KAUH 171515Z AUTO 00000KT 10SM CLR 18/13 A2994 RMK AO2 T01750131

More Conditions Fewer Conditions

Pressure 29.94 in
Visibility 10.0 miles
Clouds Clear
Dew Point 56 °F
Humidity 75%
Rainfall 0.00 in
Snow Depth Not available.
UV 4 out of 12
Pollen 5.60 out of 12
Air Quality Not available.
Flu Activity Not available.
METAR KAUH 171515Z AUTO 00000KT 10SM CLR 18/13 A2994 RMK AO2 T01750131

More Conditions Fewer Conditions

10-Day Weather Forecast

Almanac

Astronomy

Sep. 17, 2014 Rise Set
Actual Time 7:14 AM CDT 7:37 PM CDT
Civil Twilight 6:47 AM CDT 8:05 PM CDT
Nautical Twilight 6:14 AM CDT 8:37 PM CDT
Astronomical Twilight 5:41 AM CDT 9:10 PM CDT
Moon 1:13 AM CDT 3:50 PM CDT
Length of Visible Light 13h 18m
Length of Day
12h 23m
Tomorrow will be 2m 42s shorter.
Waning Crescent, 35% of the Moon is Illuminated
Today
Waning Crescent
Sep 24
New
Oct 1
First Quarter
Oct 8
Full
Oct 15
Last Quarter

Today's Extremes

State Highs State Lows

Community

WunderPhotos

Upload Photos

1,754,082 photos uploaded!

WunderBlogs® & News

Nearby

Snow Depth

Station Depth Elevation
No new snow has been reported.

Earthquake Activity

City Distance Mag. Time & Date
No recent earthquake activity has been reported nearby.
Minimum magnitude displayed is 2.5.

Coastal Water Temperatures

Place Temperature
No Stations Reporting

Nearby Weather Stations